createdAt,value
2022-11-05T00:00:54.570Z,13.50
2022-11-05T00:02:14.731Z,10.00
2022-11-05T00:03:34.870Z,9.13
2022-11-05T00:04:55.078Z,19.40
2022-11-05T00:06:15.606Z,4.57
2022-11-05T00:07:39.222Z,17.10
2022-11-05T00:09:00.014Z,15.70
2022-11-05T00:10:23.330Z,17.17
2022-11-05T00:11:45.156Z,18.33
2022-11-05T00:13:05.383Z,19.27
2022-11-05T00:14:25.631Z,20.70
2022-11-05T00:15:45.830Z,20.80
2022-11-05T00:16:47.346Z,22.13
2022-11-05T00:17:48.756Z,22.10
2022-11-05T00:19:06.510Z,21.00
2022-11-05T00:20:10.215Z,19.50
2022-11-05T00:21:38.203Z,18.60
2022-11-05T00:22:58.618Z,18.40
2022-11-05T00:24:24.055Z,16.40
2022-11-05T00:25:26.375Z,12.53
2022-11-05T00:26:27.746Z,13.60
2022-11-05T00:27:29.187Z,13.80
2022-11-05T00:28:32.067Z,13.70
2022-11-05T00:29:33.557Z,13.87
2022-11-05T00:30:35.018Z,13.40
2022-11-05T00:31:36.663Z,13.80
2022-11-05T00:32:38.410Z,14.10
2022-11-05T00:33:41.650Z,13.07
2022-11-05T00:34:43.533Z,13.07
2022-11-05T00:35:45.170Z,14.63
2022-11-05T00:36:46.589Z,15.37
2022-11-05T00:37:50.409Z,15.83
2022-11-05T00:38:52.763Z,15.67
2022-11-05T00:39:54.340Z,16.57
2022-11-05T00:40:56.259Z,15.80
2022-11-05T00:42:16.457Z,15.10
2022-11-05T00:43:36.558Z,15.40
2022-11-05T00:44:56.922Z,15.00
2022-11-05T00:45:58.360Z,14.00
2022-11-05T00:47:19.893Z,13.67
2022-11-05T00:48:40.251Z,11.43
2022-11-05T00:49:41.632Z,12.43
2022-11-05T00:50:43.058Z,11.83
2022-11-05T00:51:44.904Z,11.30
2022-11-05T00:52:56.814Z,10.90
2022-11-05T00:53:58.230Z,10.53
2022-11-05T00:54:59.648Z,11.23
2022-11-05T00:56:01.974Z,11.33
2022-11-05T00:57:04.879Z,11.50
2022-11-05T00:58:12.316Z,11.80
2022-11-05T00:59:13.715Z,13.40
2022-11-05T01:00:15.559Z,12.30
2022-11-05T01:01:17.245Z,12.60
2022-11-05T01:02:18.930Z,12.70
2022-11-05T01:03:22.854Z,13.30
2022-11-05T01:04:24.684Z,13.17
2022-11-05T01:05:26.270Z,13.87
2022-11-05T01:06:27.654Z,13.23
2022-11-05T01:07:29.298Z,13.10
2022-11-05T01:08:30.723Z,12.70
2022-11-05T01:09:32.421Z,12.57
2022-11-05T01:10:33.854Z,11.73
2022-11-05T01:11:37.112Z,9.90
2022-11-05T01:12:39.029Z,8.90
2022-11-05T01:13:40.640Z,9.43
2022-11-05T01:14:42.159Z,9.70
2022-11-05T01:15:43.765Z,9.10
2022-11-05T01:16:45.501Z,9.63
2022-11-05T01:17:46.942Z,8.90
2022-11-05T01:18:48.512Z,9.10
2022-11-05T01:19:49.952Z,8.57
2022-11-05T01:20:51.561Z,7.13
2022-11-05T01:21:53.302Z,6.40
2022-11-05T01:22:54.736Z,6.73
2022-11-05T01:23:56.095Z,7.83
2022-11-05T01:24:57.482Z,8.00
2022-11-05T01:25:58.927Z,7.83
2022-11-05T01:27:00.385Z,7.10
2022-11-05T01:28:03.328Z,7.80
2022-11-05T01:29:04.785Z,6.73
2022-11-05T01:30:08.237Z,7.00
2022-11-05T01:31:09.668Z,7.03
2022-11-05T01:32:11.062Z,7.60
2022-11-05T01:33:12.836Z,6.53
2022-11-05T01:34:14.515Z,6.73
2022-11-05T01:35:17.410Z,7.27
2022-11-05T01:36:19.072Z,7.53
2022-11-05T01:37:20.479Z,7.07
2022-11-05T01:38:22.100Z,7.30
2022-11-05T01:39:23.516Z,7.47
2022-11-05T01:40:25.348Z,7.80
2022-11-05T01:41:26.999Z,7.90
2022-11-05T01:42:31.085Z,7.83
2022-11-05T01:43:57.434Z,7.97
2022-11-05T01:45:06.981Z,7.67
2022-11-05T01:46:08.501Z,8.10
2022-11-05T01:47:36.909Z,7.50
2022-11-05T01:48:38.670Z,7.43
2022-11-05T01:49:40.365Z,8.73
2022-11-05T01:50:47.624Z,8.77
2022-11-05T01:51:49.388Z,8.03
2022-11-05T01:52:56.226Z,8.77
2022-11-05T01:54:10.145Z,8.60
2022-11-05T01:55:13.890Z,8.67
2022-11-05T01:56:23.630Z,8.37
2022-11-05T01:57:25.881Z,7.90
2022-11-05T01:58:32.911Z,8.07
2022-11-05T01:59:39.251Z,8.17
2022-11-05T02:00:42.243Z,8.53
2022-11-05T02:01:45.071Z,8.17
2022-11-05T02:02:47.611Z,8.83
2022-11-05T02:03:52.671Z,7.83
2022-11-05T02:05:06.564Z,8.30
2022-11-05T02:06:09.471Z,7.93
2022-11-05T02:07:11.722Z,8.17
2022-11-05T02:08:21.387Z,7.63
2022-11-05T02:09:29.544Z,8.13
2022-11-05T02:10:31.951Z,8.40
2022-11-05T02:11:33.461Z,7.50
2022-11-05T02:12:38.531Z,9.10
2022-11-05T02:13:40.682Z,7.90
2022-11-05T02:14:42.075Z,7.50
2022-11-05T02:15:59.355Z,8.30
2022-11-05T02:17:39.782Z,8.13
2022-11-05T02:19:08.363Z,8.30
2022-11-05T02:20:17.559Z,9.53
2022-11-05T02:21:35.339Z,9.43
2022-11-05T02:22:55.216Z,8.50
2022-11-05T02:24:34.752Z,9.00
2022-11-05T02:26:13.830Z,8.83
2022-11-05T02:27:43.443Z,8.00
2022-11-05T02:29:21.401Z,8.73
2022-11-05T02:30:47.699Z,8.90
2022-11-05T02:31:49.060Z,8.33
2022-11-05T02:32:53.536Z,9.17
2022-11-05T02:34:00.485Z,8.40
2022-11-05T02:35:15.093Z,8.70
2022-11-05T02:36:39.017Z,9.50
2022-11-05T02:37:51.545Z,8.70
2022-11-05T02:39:10.488Z,8.03
2022-11-05T02:40:34.070Z,9.37
2022-11-05T02:41:54.784Z,8.87
2022-11-05T02:43:07.643Z,8.50
2022-11-05T02:44:26.537Z,9.37
2022-11-05T02:45:36.572Z,9.00
2022-11-05T02:46:43.793Z,9.73
2022-11-05T02:47:51.352Z,10.87
2022-11-05T02:49:33.957Z,10.73
2022-11-05T02:50:57.172Z,10.47
2022-11-05T02:52:05.300Z,10.53
2022-11-05T02:53:28.874Z,10.93
2022-11-05T02:54:42.583Z,11.20
2022-11-05T02:56:00.397Z,10.13
2022-11-05T02:57:03.341Z,10.03
2022-11-05T02:58:06.062Z,10.87
2022-11-05T02:59:07.441Z,11.27
2022-11-05T03:00:35.127Z,11.87
2022-11-05T03:01:37.732Z,11.37
2022-11-05T03:02:39.345Z,10.93
2022-11-05T03:03:45.757Z,11.70
2022-11-05T03:04:47.286Z,11.50
2022-11-05T03:06:13.306Z,12.17
2022-11-05T03:07:46.059Z,11.70
2022-11-05T03:08:50.291Z,11.53
2022-11-05T03:10:16.891Z,12.03
2022-11-05T03:11:21.537Z,12.70
2022-11-05T03:12:59.745Z,12.57
2022-11-05T03:14:22.339Z,11.70
2022-11-05T03:15:38.448Z,10.43
2022-11-05T03:16:43.046Z,11.40
2022-11-05T03:18:10.007Z,11.13
2022-11-05T03:19:19.475Z,11.37
2022-11-05T03:20:23.932Z,11.83
2022-11-05T03:21:41.800Z,9.90
2022-11-05T03:23:05.911Z,10.00
2022-11-05T03:24:45.224Z,10.47
2022-11-05T03:25:57.029Z,10.50
2022-11-05T03:27:13.338Z,9.70
2022-11-05T03:28:16.951Z,9.83
2022-11-05T03:29:24.100Z,9.47
2022-11-05T03:30:26.349Z,9.87
2022-11-05T03:31:29.769Z,9.60
2022-11-05T03:32:35.799Z,9.80
2022-11-05T03:33:39.492Z,10.30
2022-11-05T03:34:48.076Z,9.73
2022-11-05T03:35:56.433Z,9.67
2022-11-05T03:36:59.544Z,9.87
2022-11-05T03:38:06.976Z,10.80
2022-11-05T03:39:15.776Z,9.60
2022-11-05T03:40:21.507Z,9.90
2022-11-05T03:41:24.553Z,10.00
2022-11-05T03:42:29.951Z,10.70
2022-11-05T03:43:36.851Z,10.63
2022-11-05T03:44:45.444Z,10.17
2022-11-05T03:45:59.050Z,10.00
2022-11-05T03:47:07.406Z,9.77
2022-11-05T03:48:12.527Z,9.83
2022-11-05T03:49:31.020Z,11.13
2022-11-05T03:50:55.867Z,9.90
2022-11-05T03:52:01.544Z,8.47
2022-11-05T03:53:17.008Z,8.70
2022-11-05T03:54:19.281Z,9.43
2022-11-05T03:55:26.312Z,8.93
2022-11-05T03:56:29.643Z,9.20
2022-11-05T03:57:39.545Z,9.50
2022-11-05T03:58:44.717Z,9.77
2022-11-05T03:59:49.881Z,9.80
2022-11-05T04:00:51.602Z,10.20
2022-11-05T04:01:54.915Z,10.40
2022-11-05T04:02:56.384Z,10.10
2022-11-05T04:03:58.075Z,10.77
2022-11-05T04:04:59.532Z,11.00
2022-11-05T04:06:19.791Z,10.97
2022-11-05T04:07:40.116Z,11.03
2022-11-05T04:09:00.436Z,11.70
2022-11-05T04:10:20.506Z,12.43
2022-11-05T04:11:40.726Z,13.43
2022-11-05T04:13:01.386Z,13.70
2022-11-05T04:14:02.859Z,16.63
2022-11-05T04:15:04.443Z,22.70
2022-11-05T04:16:24.467Z,23.47
2022-11-05T04:17:26.262Z,27.10
2022-11-05T04:18:28.214Z,27.50
2022-11-05T04:19:48.360Z,26.57
2022-11-05T04:21:08.529Z,23.00
2022-11-05T04:22:28.745Z,23.60
2022-11-05T04:23:49.176Z,18.83
2022-11-05T04:24:50.571Z,18.00
2022-11-05T04:25:52.207Z,15.47
2022-11-05T04:26:53.797Z,15.47
2022-11-05T04:28:00.490Z,15.30
2022-11-05T04:29:20.549Z,14.77
2022-11-05T04:30:22.749Z,16.10
2022-11-05T04:31:24.373Z,18.57
2022-11-05T04:32:25.850Z,17.20
2022-11-05T04:33:27.433Z,30.60
2022-11-05T04:34:29.067Z,7.53
2022-11-05T04:35:34.429Z,2.07
2022-11-05T04:36:36.062Z,1.80
2022-11-05T04:37:37.698Z,1.73
2022-11-05T04:38:39.252Z,3.60
2022-11-05T04:39:40.755Z,0.50
2022-11-05T04:40:43.323Z,0.50
2022-11-05T04:41:47.864Z,0.60
2022-11-05T04:42:49.302Z,0.60
2022-11-05T04:43:50.724Z,0.60
2022-11-05T04:44:52.348Z,0.70
2022-11-05T04:45:54.131Z,0.50
2022-11-05T04:46:55.477Z,0.70
2022-11-05T04:47:56.998Z,0.80
2022-11-05T04:48:58.621Z,1.17
2022-11-05T04:50:00.227Z,1.60
2022-11-05T04:51:01.901Z,2.60
2022-11-05T04:52:03.363Z,5.40
2022-11-05T04:53:04.790Z,9.60
2022-11-05T04:54:06.235Z,13.57
2022-11-05T04:55:08.469Z,15.70
2022-11-05T04:56:17.646Z,17.23
2022-11-05T04:57:19.030Z,16.23
2022-11-05T04:58:21.538Z,17.60
2022-11-05T04:59:22.943Z,17.23
2022-11-05T05:00:25.203Z,17.90
2022-11-05T05:01:26.794Z,17.37
2022-11-05T05:02:28.728Z,17.27
2022-11-05T05:03:30.180Z,16.53
2022-11-05T05:04:31.610Z,16.47
2022-11-05T05:05:33.042Z,16.43
2022-11-05T05:06:34.427Z,16.40
2022-11-05T05:07:36.230Z,17.60
2022-11-05T05:08:37.705Z,17.17
2022-11-05T05:09:39.120Z,16.17
2022-11-05T05:10:40.508Z,16.80
2022-11-05T05:11:41.977Z,16.40
2022-11-05T05:12:43.407Z,17.50
2022-11-05T05:13:44.831Z,16.70
2022-11-05T05:14:48.276Z,17.07
2022-11-05T05:15:49.687Z,16.43
2022-11-05T05:16:51.164Z,16.83
2022-11-05T05:17:53.276Z,16.57
2022-11-05T05:18:54.967Z,16.60
2022-11-05T05:20:25.845Z,16.50
2022-11-05T05:21:39.393Z,15.63
2022-11-05T05:22:40.877Z,16.33
2022-11-05T05:23:42.332Z,15.50
2022-11-05T05:24:47.357Z,15.90
2022-11-05T05:25:51.420Z,16.33
2022-11-05T05:26:53.072Z,17.23
2022-11-05T05:27:58.179Z,15.90
2022-11-05T05:28:59.539Z,16.00
2022-11-05T05:30:01.066Z,16.73
2022-11-05T05:31:02.877Z,16.57
2022-11-05T05:32:05.328Z,16.83
2022-11-05T05:33:06.696Z,15.67
2022-11-05T05:34:10.697Z,16.40
2022-11-05T05:35:12.115Z,15.40
2022-11-05T05:36:13.583Z,15.73
2022-11-05T05:37:15.170Z,17.80
2022-11-05T05:38:16.563Z,15.70
2022-11-05T05:39:17.964Z,16.83
2022-11-05T05:40:19.360Z,16.60
2022-11-05T05:41:21.299Z,16.17
2022-11-05T05:42:22.957Z,16.27
2022-11-05T05:43:24.377Z,17.20
2022-11-05T05:44:25.743Z,16.80
2022-11-05T05:45:27.238Z,17.47
2022-11-05T05:46:28.620Z,17.60
2022-11-05T05:47:30.012Z,16.17
2022-11-05T05:48:32.036Z,17.43
2022-11-05T05:49:33.459Z,17.13
2022-11-05T05:50:35.144Z,16.30
2022-11-05T05:51:42.065Z,17.17
2022-11-05T05:52:43.468Z,16.93
2022-11-05T05:53:45.181Z,16.73
2022-11-05T05:54:46.563Z,16.53
2022-11-05T05:55:47.934Z,16.40
2022-11-05T05:56:49.464Z,17.97
2022-11-05T05:57:50.970Z,16.47
2022-11-05T05:58:52.419Z,15.90
2022-11-05T05:59:53.793Z,17.17
2022-11-05T06:00:55.812Z,17.20
2022-11-05T06:01:57.683Z,17.40
2022-11-05T06:02:59.197Z,16.80
2022-11-05T06:04:01.357Z,15.43
2022-11-05T06:05:02.725Z,16.40
2022-11-05T06:06:07.263Z,15.40
2022-11-05T06:07:08.825Z,16.63
2022-11-05T06:08:10.214Z,16.70
2022-11-05T06:09:11.604Z,16.43
2022-11-05T06:10:13.087Z,16.53
2022-11-05T06:11:15.124Z,16.57
2022-11-05T06:12:16.519Z,16.17
2022-11-05T06:13:17.888Z,15.93
2022-11-05T06:14:19.669Z,15.53
2022-11-05T06:15:21.040Z,16.00
2022-11-05T06:16:22.775Z,15.30
2022-11-05T06:17:24.679Z,16.00
2022-11-05T06:18:26.577Z,15.70
2022-11-05T06:19:29.002Z,16.30
2022-11-05T06:20:30.572Z,15.90
2022-11-05T06:21:32.028Z,16.43
2022-11-05T06:22:33.704Z,14.97
2022-11-05T06:23:37.129Z,16.43
2022-11-05T06:24:38.865Z,15.70
2022-11-05T06:25:41.487Z,16.10
2022-11-05T06:26:43.388Z,15.57
2022-11-05T06:27:44.795Z,16.33
2022-11-05T06:28:46.545Z,15.63
2022-11-05T06:29:47.951Z,16.77
2022-11-05T06:30:52.202Z,16.13
2022-11-05T06:31:53.946Z,15.73
2022-11-05T06:32:55.319Z,15.70
2022-11-05T06:33:56.726Z,15.60
2022-11-05T06:34:58.454Z,16.30
2022-11-05T06:36:01.781Z,16.20
2022-11-05T06:37:03.215Z,15.67
2022-11-05T06:38:04.956Z,15.90
2022-11-05T06:39:11.467Z,15.93
2022-11-05T06:40:12.939Z,15.80
2022-11-05T06:41:14.757Z,16.80
2022-11-05T06:42:18.973Z,16.50
2022-11-05T06:43:20.921Z,16.20
2022-11-05T06:44:23.123Z,15.70
2022-11-05T06:45:24.605Z,15.87
2022-11-05T06:46:25.993Z,16.40
2022-11-05T06:47:27.749Z,16.57
2022-11-05T06:48:29.643Z,16.03
2022-11-05T06:49:31.336Z,16.63
2022-11-05T06:50:32.798Z,16.00
2022-11-05T06:51:34.508Z,17.70
2022-11-05T06:52:40.776Z,15.83
2022-11-05T06:53:42.608Z,16.50
2022-11-05T06:54:44.329Z,16.53
2022-11-05T06:55:47.829Z,16.63
2022-11-05T06:56:49.232Z,15.40
2022-11-05T06:57:50.980Z,16.00
2022-11-05T06:58:52.349Z,18.10
2022-11-05T06:59:59.634Z,16.60
2022-11-05T07:01:10.806Z,16.17
2022-11-05T07:02:13.747Z,16.23
2022-11-05T07:03:15.591Z,17.20
2022-11-05T07:04:17.209Z,16.73
2022-11-05T07:05:18.779Z,17.20
2022-11-05T07:06:20.302Z,15.80
2022-11-05T07:07:21.687Z,15.50
2022-11-05T07:08:24.043Z,15.43
2022-11-05T07:09:25.603Z,16.27
2022-11-05T07:10:27.061Z,16.87
2022-11-05T07:11:28.663Z,15.97
2022-11-05T07:12:30.163Z,15.73
2022-11-05T07:13:32.170Z,16.47
2022-11-05T07:14:33.746Z,17.03
2022-11-05T07:15:35.794Z,16.00
2022-11-05T07:16:37.814Z,15.83
2022-11-05T07:17:40.233Z,16.00
2022-11-05T07:18:41.667Z,16.00
2022-11-05T07:19:43.491Z,15.43
2022-11-05T07:20:44.901Z,17.60
2022-11-05T07:21:47.467Z,16.60
2022-11-05T07:22:48.904Z,16.30
2022-11-05T07:23:50.373Z,16.30
2022-11-05T07:24:51.797Z,17.30
2022-11-05T07:25:53.448Z,17.40
2022-11-05T07:26:54.833Z,16.30
2022-11-05T07:27:56.325Z,16.33
2022-11-05T07:28:57.817Z,16.77
2022-11-05T07:29:59.689Z,15.87
2022-11-05T07:31:01.146Z,17.40
2022-11-05T07:32:02.596Z,16.20
2022-11-05T07:33:04.356Z,16.10
2022-11-05T07:34:05.824Z,16.90
2022-11-05T07:35:09.299Z,16.30
2022-11-05T07:36:10.910Z,16.47
2022-11-05T07:37:12.378Z,14.70
2022-11-05T07:38:13.827Z,15.30
2022-11-05T07:39:15.348Z,15.00
2022-11-05T07:40:18.618Z,16.57
2022-11-05T07:41:20.063Z,16.30
2022-11-05T07:42:21.434Z,16.87
2022-11-05T07:43:22.799Z,16.77
2022-11-05T07:44:24.459Z,16.23
2022-11-05T07:45:28.610Z,15.90
2022-11-05T07:46:30.917Z,16.07
2022-11-05T07:47:32.564Z,16.67
2022-11-05T07:48:34.024Z,15.60
2022-11-05T07:49:35.488Z,16.07
2022-11-05T07:50:37.727Z,15.60
2022-11-05T07:51:39.176Z,16.10
2022-11-05T07:52:40.639Z,15.70
2022-11-05T07:53:45.452Z,16.23
2022-11-05T07:54:47.316Z,15.47
2022-11-05T07:55:48.765Z,15.97
2022-11-05T07:56:50.160Z,15.53
2022-11-05T07:57:51.643Z,15.37
2022-11-05T07:58:53.090Z,15.17
2022-11-05T07:59:54.664Z,15.60
2022-11-05T08:00:57.342Z,15.70
2022-11-05T08:01:59.112Z,16.50
2022-11-05T08:03:18.210Z,14.27
2022-11-05T08:04:20.914Z,14.63
2022-11-05T08:05:22.292Z,14.90
2022-11-05T08:06:23.753Z,15.40
2022-11-05T08:07:25.386Z,14.53
2022-11-05T08:08:26.949Z,14.93
2022-11-05T08:09:28.445Z,14.10
2022-11-05T08:10:30.333Z,13.67
2022-11-05T08:11:31.756Z,14.00
2022-11-05T08:12:33.948Z,13.70
2022-11-05T08:13:36.402Z,14.30
2022-11-05T08:14:37.836Z,14.63
2022-11-05T08:15:39.439Z,14.67
2022-11-05T08:16:40.900Z,13.50
2022-11-05T08:17:42.336Z,14.60
2022-11-05T08:18:44.611Z,13.37
2022-11-05T08:19:46.054Z,13.30
2022-11-05T08:20:48.652Z,12.20
2022-11-05T08:21:50.322Z,11.83
2022-11-05T08:22:51.781Z,12.50
2022-11-05T08:23:53.175Z,11.60
2022-11-05T08:24:54.583Z,12.67
2022-11-05T08:25:56.957Z,11.37
2022-11-05T08:26:58.432Z,12.10
2022-11-05T08:28:04.939Z,11.77
2022-11-05T08:29:06.647Z,10.87
2022-11-05T08:30:09.403Z,10.40
2022-11-05T08:31:10.844Z,9.67
2022-11-05T08:32:12.492Z,9.30
2022-11-05T08:33:14.719Z,8.87
2022-11-05T08:34:16.458Z,9.13
2022-11-05T08:35:18.069Z,8.47
2022-11-05T08:36:19.708Z,8.73
2022-11-05T08:37:21.049Z,9.20
2022-11-05T08:38:22.611Z,8.53
2022-11-05T08:39:24.098Z,8.33
2022-11-05T08:40:26.663Z,8.13
2022-11-05T08:41:28.222Z,7.90
2022-11-05T08:42:29.568Z,8.00
2022-11-05T08:43:31.012Z,8.70
2022-11-05T08:44:32.582Z,7.70
2022-11-05T08:45:38.228Z,7.43
2022-11-05T08:46:41.686Z,6.80
2022-11-05T08:47:43.343Z,6.77
2022-11-05T08:48:44.868Z,6.50
2022-11-05T08:49:46.349Z,6.63
2022-11-05T08:50:48.869Z,5.53
2022-11-05T08:51:50.603Z,5.80
2022-11-05T08:52:51.969Z,5.00
2022-11-05T08:53:53.487Z,4.63
2022-11-05T08:54:54.861Z,4.23
2022-11-05T08:55:59.757Z,5.10
2022-11-05T08:57:01.207Z,4.80
2022-11-05T08:58:10.560Z,5.37
2022-11-05T08:59:11.976Z,4.73
2022-11-05T09:00:15.244Z,4.87
2022-11-05T09:01:16.675Z,3.80
2022-11-05T09:02:18.596Z,3.73
2022-11-05T09:03:20.236Z,3.70
2022-11-05T09:04:21.710Z,3.63
2022-11-05T09:05:23.075Z,4.70
2022-11-05T09:06:24.475Z,4.37
2022-11-05T09:07:25.888Z,4.50
2022-11-05T09:08:27.305Z,5.20
2022-11-05T09:09:28.800Z,4.10
2022-11-05T09:10:30.409Z,4.60
2022-11-05T09:11:49.906Z,4.63
2022-11-05T09:12:53.741Z,4.33
2022-11-05T09:13:55.197Z,4.63
2022-11-05T09:14:56.766Z,4.70
2022-11-05T09:15:59.382Z,4.70
2022-11-05T09:17:00.832Z,4.50
2022-11-05T09:18:05.642Z,4.63
2022-11-05T09:19:07.108Z,4.50
2022-11-05T09:20:11.112Z,5.20
2022-11-05T09:21:12.872Z,4.70
2022-11-05T09:22:14.802Z,5.90
2022-11-05T09:23:16.893Z,5.07
2022-11-05T09:24:18.367Z,5.67
2022-11-05T09:25:20.070Z,4.60
2022-11-05T09:26:22.203Z,4.80
2022-11-05T09:27:23.638Z,4.40
2022-11-05T09:28:25.571Z,5.53
2022-11-05T09:29:27.632Z,5.90
2022-11-05T09:30:28.995Z,4.63
2022-11-05T09:31:30.376Z,5.10
2022-11-05T09:32:33.198Z,4.30
2022-11-05T09:33:36.551Z,4.43
2022-11-05T09:34:38.096Z,4.90
2022-11-05T09:35:41.257Z,4.43
2022-11-05T09:36:42.994Z,4.40
2022-11-05T09:37:45.967Z,4.20
2022-11-05T09:38:47.422Z,4.50
2022-11-05T09:39:48.880Z,5.27
2022-11-05T09:41:23.496Z,5.77
2022-11-05T09:42:42.845Z,5.10
2022-11-05T09:43:50.300Z,4.33
2022-11-05T09:44:56.009Z,5.27
2022-11-05T09:46:00.760Z,4.50
2022-11-05T09:47:06.715Z,4.90
2022-11-05T09:48:15.756Z,5.10
2022-11-05T09:49:29.333Z,4.93
2022-11-05T09:50:34.719Z,5.60
2022-11-05T09:51:37.150Z,5.47
2022-11-05T09:52:38.675Z,6.00
2022-11-05T09:53:41.677Z,5.63
2022-11-05T09:54:43.146Z,6.20
2022-11-05T09:56:05.917Z,6.57
2022-11-05T09:57:14.570Z,6.63
2022-11-05T09:58:39.085Z,5.40
2022-11-05T09:59:48.654Z,5.27
2022-11-05T10:00:52.734Z,6.33
2022-11-05T10:02:17.717Z,5.83
2022-11-05T10:03:25.561Z,5.23
2022-11-05T10:04:28.614Z,5.77
2022-11-05T10:05:32.473Z,5.40
2022-11-05T10:06:34.470Z,6.83
2022-11-05T10:07:47.121Z,5.47
2022-11-05T10:09:12.184Z,5.80
2022-11-05T10:10:41.335Z,5.60
2022-11-05T10:11:51.561Z,5.90
2022-11-05T10:13:33.340Z,5.23
2022-11-05T10:14:41.009Z,4.93
2022-11-05T10:16:10.978Z,5.33
2022-11-05T10:17:22.380Z,4.90
2022-11-05T10:18:47.320Z,4.63
2022-11-05T10:19:58.404Z,5.00
2022-11-05T10:21:00.242Z,5.37
2022-11-05T10:22:10.908Z,4.67
2022-11-05T10:23:18.167Z,5.00
2022-11-05T10:24:20.827Z,3.93
2022-11-05T10:25:24.529Z,3.87
2022-11-05T10:26:27.390Z,4.17
2022-11-05T10:27:36.540Z,3.60
2022-11-05T10:28:39.309Z,3.83
2022-11-05T10:29:43.306Z,3.40
2022-11-05T10:30:51.236Z,3.30
2022-11-05T10:31:55.920Z,3.07
2022-11-05T10:33:03.215Z,3.30
2022-11-05T10:34:07.645Z,2.67
2022-11-05T10:35:18.378Z,2.90
2022-11-05T10:36:34.352Z,4.17
2022-11-05T10:37:40.695Z,2.93
2022-11-05T10:38:42.472Z,4.00
2022-11-05T10:39:43.853Z,3.77
2022-11-05T10:41:07.142Z,3.63
2022-11-05T10:42:35.955Z,2.53
2022-11-05T10:43:45.049Z,3.27
2022-11-05T10:44:52.288Z,2.83
2022-11-05T10:46:23.294Z,3.33
2022-11-05T10:47:43.310Z,3.10
2022-11-05T10:48:48.960Z,3.30
2022-11-05T10:50:02.099Z,3.80
2022-11-05T10:51:03.751Z,3.67
2022-11-05T10:52:19.883Z,3.37
2022-11-05T10:53:27.471Z,3.83
2022-11-05T10:54:34.092Z,3.17
2022-11-05T10:55:44.775Z,3.47
2022-11-05T10:56:46.625Z,3.30
2022-11-05T10:57:49.696Z,3.27
2022-11-05T10:58:56.777Z,3.23
2022-11-05T11:00:20.017Z,3.67
2022-11-05T11:01:25.138Z,3.70
2022-11-05T11:02:28.168Z,2.90
2022-11-05T11:03:49.269Z,4.10
2022-11-05T11:04:55.361Z,3.13
2022-11-05T11:06:05.180Z,3.47
2022-11-05T11:07:21.892Z,3.63
2022-11-05T11:08:24.867Z,4.60
2022-11-05T11:09:30.458Z,3.60
2022-11-05T11:10:39.079Z,2.83
2022-11-05T11:11:42.635Z,3.40
2022-11-05T11:12:44.478Z,3.20
2022-11-05T11:13:58.239Z,3.73
2022-11-05T11:15:02.409Z,3.90
2022-11-05T11:16:16.592Z,3.70
2022-11-05T11:17:31.112Z,3.10
2022-11-05T11:18:40.453Z,3.60
2022-11-05T11:19:42.264Z,3.83
2022-11-05T11:20:46.407Z,3.40
2022-11-05T11:22:07.738Z,3.50
2022-11-05T11:23:14.856Z,3.03
2022-11-05T11:24:28.554Z,4.20
2022-11-05T11:25:45.853Z,3.53
2022-11-05T11:26:47.391Z,3.27
2022-11-05T11:27:49.084Z,3.30
2022-11-05T11:29:13.116Z,2.90
2022-11-05T11:30:19.684Z,3.50
2022-11-05T11:31:30.506Z,3.40
2022-11-05T11:32:37.735Z,3.43
2022-11-05T11:33:41.112Z,3.30
2022-11-05T11:34:45.047Z,3.53
2022-11-05T11:35:47.093Z,3.60
2022-11-05T11:36:53.551Z,5.20
2022-11-05T11:37:57.289Z,3.40
2022-11-05T11:39:04.447Z,3.43
2022-11-05T11:40:23.063Z,3.07
2022-11-05T11:41:32.749Z,4.67
2022-11-05T11:42:39.642Z,3.20
2022-11-05T11:43:42.448Z,3.30
2022-11-05T11:44:46.583Z,4.23
2022-11-05T11:45:51.841Z,3.97
2022-11-05T11:47:03.219Z,4.20
2022-11-05T11:48:06.890Z,4.70
2022-11-05T11:49:42.503Z,3.40
2022-11-05T11:50:46.281Z,3.50
2022-11-05T11:51:50.144Z,3.50
2022-11-05T11:52:52.553Z,2.70
2022-11-05T11:53:58.426Z,3.37
2022-11-05T11:55:11.824Z,4.00
2022-11-05T11:56:21.343Z,3.60
2022-11-05T11:57:24.995Z,3.77
2022-11-05T11:58:37.942Z,3.70
2022-11-05T12:00:07.115Z,3.30
2022-11-05T12:01:27.016Z,2.93
2022-11-05T12:02:38.595Z,2.93
2022-11-05T12:04:16.464Z,3.17
2022-11-05T12:05:26.555Z,2.80
2022-11-05T12:06:44.211Z,3.23
2022-11-05T12:07:55.073Z,4.00
2022-11-05T12:09:25.044Z,4.23
2022-11-05T12:10:44.915Z,3.70
2022-11-05T12:12:08.974Z,2.87
2022-11-05T12:13:19.467Z,3.43
2022-11-05T12:14:54.540Z,3.30
2022-11-05T12:16:05.057Z,3.00
2022-11-05T12:17:30.363Z,3.40
2022-11-05T12:18:46.955Z,4.10
2022-11-05T12:20:10.609Z,4.57
2022-11-05T12:21:51.487Z,3.10
2022-11-05T12:22:54.323Z,3.00
2022-11-05T12:24:07.601Z,2.80
2022-11-05T12:25:30.673Z,2.90
2022-11-05T12:27:26.389Z,2.63
2022-11-05T12:29:17.893Z,3.63
2022-11-05T12:30:20.566Z,3.60
2022-11-05T12:31:40.327Z,2.90
2022-11-05T12:33:16.250Z,3.70
2022-11-05T12:34:45.038Z,5.47
2022-11-05T12:36:27.793Z,5.13
2022-11-05T12:37:51.073Z,4.13
2022-11-05T12:39:04.752Z,2.93
2022-11-05T12:40:09.416Z,3.20
2022-11-05T12:41:30.206Z,3.00
2022-11-05T12:42:43.222Z,3.10
2022-11-05T12:44:10.042Z,3.13
2022-11-05T12:45:43.304Z,3.50
2022-11-05T12:47:07.207Z,4.30
2022-11-05T12:48:35.800Z,3.73
2022-11-05T12:49:54.735Z,3.03
2022-11-05T12:51:26.851Z,2.90
2022-11-05T12:52:55.267Z,3.00
2022-11-05T12:54:10.931Z,2.73
2022-11-05T12:55:18.959Z,2.60
2022-11-05T12:56:46.911Z,3.10
2022-11-05T12:57:53.225Z,2.97
2022-11-05T12:59:10.651Z,3.10
2022-11-05T13:00:20.693Z,2.73
2022-11-05T13:01:28.673Z,2.90
2022-11-05T13:03:13.614Z,3.10
2022-11-05T13:04:44.013Z,2.80
2022-11-05T13:06:01.475Z,2.53
2022-11-05T13:07:10.126Z,2.50
2022-11-05T13:08:20.380Z,2.30
2022-11-05T13:09:32.346Z,2.83
2022-11-05T13:10:55.025Z,2.60
2022-11-05T13:12:08.123Z,2.40
2022-11-05T13:13:22.366Z,2.57
2022-11-05T13:14:45.719Z,2.63
2022-11-05T13:15:55.232Z,2.50
2022-11-05T13:17:10.846Z,2.57
2022-11-05T13:18:18.194Z,2.80
2022-11-05T13:19:59.191Z,2.10
2022-11-05T13:21:04.573Z,2.50
2022-11-05T13:22:21.215Z,2.53
2022-11-05T13:23:39.831Z,3.20
2022-11-05T13:24:50.893Z,2.30
2022-11-05T13:25:57.885Z,2.10
2022-11-05T13:27:05.323Z,2.33
2022-11-05T13:28:28.319Z,2.67
2022-11-05T13:29:39.755Z,3.00
2022-11-05T13:30:46.484Z,2.67
2022-11-05T13:31:57.896Z,2.60
2022-11-05T13:33:07.759Z,2.40
2022-11-05T13:34:13.179Z,2.40
2022-11-05T13:35:19.889Z,2.00
2022-11-05T13:37:09.682Z,2.60
2022-11-05T13:38:41.929Z,2.70
2022-11-05T13:39:48.624Z,2.23
2022-11-05T13:40:58.991Z,2.97
2022-11-05T13:42:17.047Z,2.50
2022-11-05T13:43:31.019Z,2.10
2022-11-05T13:45:07.712Z,2.43
2022-11-05T13:46:30.896Z,2.43
2022-11-05T13:47:47.291Z,2.33
2022-11-05T13:49:02.274Z,2.07
2022-11-05T13:50:06.790Z,2.13
2022-11-05T13:51:38.609Z,2.50
2022-11-05T13:53:10.608Z,2.30
2022-11-05T13:54:35.410Z,2.60
2022-11-05T13:55:57.691Z,2.67
2022-11-05T13:57:17.618Z,2.37
2022-11-05T13:58:21.736Z,3.20
2022-11-05T13:59:41.060Z,2.93
2022-11-05T14:01:05.430Z,5.37
2022-11-05T14:02:15.473Z,4.37
2022-11-05T14:03:21.572Z,3.60
2022-11-05T14:04:41.200Z,4.00
2022-11-05T14:05:43.527Z,3.10
2022-11-05T14:06:45.022Z,1.90
2022-11-05T14:07:47.610Z,2.40
2022-11-05T14:08:49.246Z,3.00
2022-11-05T14:10:20.553Z,2.50
2022-11-05T14:11:33.025Z,2.87
2022-11-05T14:12:39.975Z,2.60
2022-11-05T14:13:43.676Z,2.97
2022-11-05T14:14:58.424Z,2.87
2022-11-05T14:16:17.442Z,2.33
2022-11-05T14:17:52.900Z,2.53
2022-11-05T14:19:19.955Z,2.80
2022-11-05T14:20:30.290Z,2.70
2022-11-05T14:21:46.494Z,2.60
2022-11-05T14:22:47.987Z,2.77
2022-11-05T14:23:52.417Z,2.87
2022-11-05T14:24:53.807Z,2.47
2022-11-05T14:26:12.358Z,2.53
2022-11-05T14:27:13.682Z,2.77
2022-11-05T14:28:33.862Z,2.23
2022-11-05T14:29:45.356Z,3.20
2022-11-05T14:30:47.891Z,4.90
2022-11-05T14:33:29.224Z,3.30
2022-11-05T14:34:42.768Z,3.30
2022-11-05T14:35:44.418Z,2.63
2022-11-05T14:37:27.472Z,2.67
2022-11-05T14:38:28.996Z,3.10
2022-11-05T14:39:32.194Z,4.63
2022-11-05T14:40:38.810Z,3.90
2022-11-05T14:42:03.586Z,4.00
2022-11-05T14:43:21.768Z,3.30
2022-11-05T14:44:24.940Z,4.47
2022-11-05T14:45:51.980Z,3.53
2022-11-05T14:46:57.550Z,2.97
2022-11-05T14:48:01.628Z,2.90
2022-11-05T14:49:09.363Z,3.03
2022-11-05T14:50:27.138Z,3.50
2022-11-05T14:51:39.634Z,3.40
2022-11-05T14:52:51.836Z,4.50
2022-11-05T14:54:04.877Z,4.33
2022-11-05T14:55:22.714Z,2.93
2022-11-05T14:56:24.207Z,3.20
2022-11-05T14:57:43.691Z,2.50